createdAt,value
2019-05-29T00:00:24.913Z,6.20
2019-05-29T00:02:58.169Z,5.90
2019-05-29T00:05:33.970Z,6.83
2019-05-29T00:08:25.644Z,6.57
2019-05-29T00:11:00.963Z,7.40
2019-05-29T00:13:39.629Z,6.73
2019-05-29T00:16:14.422Z,6.57
2019-05-29T00:19:03.735Z,6.93
2019-05-29T00:21:36.240Z,6.80
2019-05-29T00:24:08.386Z,7.20
2019-05-29T00:27:05.382Z,6.97
2019-05-29T00:29:54.698Z,7.10
2019-05-29T00:32:26.035Z,7.57
2019-05-29T00:35:01.356Z,7.60
2019-05-29T00:37:35.259Z,7.53
2019-05-29T00:40:08.736Z,6.30
2019-05-29T00:42:41.996Z,7.13
2019-05-29T00:45:17.590Z,7.23
2019-05-29T00:47:50.936Z,7.87
2019-05-29T00:50:24.155Z,6.93
2019-05-29T00:52:58.679Z,7.30
2019-05-29T00:55:33.321Z,8.00
2019-05-29T00:58:06.690Z,8.37
2019-05-29T01:00:38.474Z,7.97
2019-05-29T01:03:13.723Z,8.43
2019-05-29T01:05:56.080Z,8.83
2019-05-29T01:08:30.558Z,9.00
2019-05-29T01:11:14.849Z,8.83
2019-05-29T01:13:48.978Z,8.93
2019-05-29T01:16:21.651Z,9.37
2019-05-29T01:18:56.400Z,9.00
2019-05-29T01:21:42.131Z,10.30
2019-05-29T01:24:14.196Z,9.20
2019-05-29T01:26:49.254Z,9.67
2019-05-29T01:29:21.140Z,10.53
2019-05-29T01:31:57.278Z,10.00
2019-05-29T01:34:28.585Z,10.37
2019-05-29T01:37:03.688Z,9.90
2019-05-29T01:39:46.472Z,10.40
2019-05-29T01:42:21.554Z,9.80
2019-05-29T01:45:11.553Z,10.83
2019-05-29T01:48:01.047Z,9.97
2019-05-29T01:50:51.381Z,10.90
2019-05-29T01:53:26.121Z,10.80
2019-05-29T01:56:01.775Z,9.67
2019-05-29T01:58:51.731Z,11.20
2019-05-29T02:01:28.200Z,9.40
2019-05-29T02:04:03.619Z,9.90
2019-05-29T02:06:35.846Z,9.40
2019-05-29T02:09:17.990Z,10.07
2019-05-29T02:11:52.614Z,9.40
2019-05-29T02:14:26.916Z,8.90
2019-05-29T02:16:59.892Z,9.33
2019-05-29T02:19:37.923Z,7.77
2019-05-29T02:22:12.125Z,7.10
2019-05-29T02:25:02.644Z,7.40
2019-05-29T02:27:35.076Z,6.97
2019-05-29T02:30:10.167Z,6.80
2019-05-29T02:32:44.916Z,7.10
2019-05-29T02:35:28.792Z,6.33
2019-05-29T02:38:00.814Z,7.37
2019-05-29T02:40:35.154Z,6.40
2019-05-29T02:43:09.298Z,6.10
2019-05-29T02:45:54.278Z,6.33
2019-05-29T02:48:23.222Z,6.17
2019-05-29T02:51:13.404Z,6.53
2019-05-29T02:53:46.993Z,6.93
2019-05-29T02:56:20.751Z,6.57
2019-05-29T02:58:54.660Z,6.73
2019-05-29T03:01:27.783Z,6.40
2019-05-29T03:04:02.417Z,5.43
2019-05-29T03:06:36.020Z,6.00
2019-05-29T03:09:10.186Z,6.00
2019-05-29T03:11:46.003Z,6.40
2019-05-29T03:14:20.892Z,5.67
2019-05-29T03:16:53.801Z,5.90
2019-05-29T03:19:28.012Z,5.77
2019-05-29T03:22:03.568Z,4.70
2019-05-29T03:24:35.303Z,5.90
2019-05-29T03:27:08.903Z,5.87
2019-05-29T03:29:40.303Z,5.47
2019-05-29T03:32:14.643Z,4.90
2019-05-29T03:34:48.046Z,5.47
2019-05-29T03:37:21.771Z,5.57
2019-05-29T03:39:55.292Z,5.90
2019-05-29T03:42:28.197Z,6.50
2019-05-29T03:45:02.194Z,6.50
2019-05-29T03:47:52.384Z,6.57
2019-05-29T03:50:26.683Z,6.30
2019-05-29T03:52:59.145Z,5.90
2019-05-29T03:55:33.806Z,5.50
2019-05-29T03:58:08.139Z,7.20
2019-05-29T04:00:46.382Z,7.10
2019-05-29T04:03:17.770Z,6.50
2019-05-29T04:05:51.232Z,5.93
2019-05-29T04:08:27.373Z,7.40
2019-05-29T04:11:00.347Z,7.40
2019-05-29T04:13:36.088Z,7.53
2019-05-29T04:16:18.251Z,7.00
2019-05-29T04:18:52.918Z,7.20
2019-05-29T04:21:27.898Z,7.50
2019-05-29T04:24:01.861Z,7.90
2019-05-29T04:26:40.490Z,7.33
2019-05-29T04:29:16.005Z,7.53
2019-05-29T04:31:49.111Z,8.57
2019-05-29T04:34:23.075Z,7.40
2019-05-29T04:36:55.396Z,8.00
2019-05-29T04:39:28.270Z,7.47
2019-05-29T04:42:02.412Z,8.17
2019-05-29T04:44:35.685Z,6.97
2019-05-29T04:47:12.143Z,7.13
2019-05-29T04:49:43.407Z,7.03
2019-05-29T04:52:17.605Z,7.80
2019-05-29T04:54:51.547Z,6.50
2019-05-29T04:57:26.506Z,7.33
2019-05-29T04:59:59.042Z,6.40
2019-05-29T05:02:33.093Z,6.10
2019-05-29T05:05:05.344Z,5.70
2019-05-29T05:07:39.911Z,6.50
2019-05-29T05:10:18.200Z,6.20
2019-05-29T05:13:02.715Z,5.60
2019-05-29T05:15:38.240Z,5.67
2019-05-29T05:18:29.758Z,5.40
2019-05-29T05:21:01.201Z,5.10
2019-05-29T05:23:34.035Z,5.47
2019-05-29T05:26:05.563Z,5.77
2019-05-29T05:28:36.993Z,5.90
2019-05-29T05:31:09.268Z,6.27
2019-05-29T05:33:43.575Z,5.57
2019-05-29T05:36:21.474Z,5.93
2019-05-29T05:38:54.891Z,4.80
2019-05-29T05:41:26.335Z,4.70
2019-05-29T05:43:59.793Z,4.87
2019-05-29T05:46:33.178Z,5.20
2019-05-29T05:49:09.530Z,5.53
2019-05-29T05:51:44.713Z,5.70
2019-05-29T05:54:19.651Z,4.97
2019-05-29T05:56:53.938Z,5.20
2019-05-29T05:59:26.200Z,7.20
2019-05-29T06:01:59.894Z,7.10
2019-05-29T06:04:34.069Z,5.60
2019-05-29T06:07:07.009Z,6.10
2019-05-29T06:09:42.408Z,5.80
2019-05-29T06:12:16.795Z,7.97
2019-05-29T06:15:02.851Z,5.67
2019-05-29T06:17:36.683Z,5.40
2019-05-29T06:20:11.854Z,4.63
2019-05-29T06:22:47.449Z,5.07
2019-05-29T06:25:23.014Z,5.60
2019-05-29T06:27:57.104Z,5.20
2019-05-29T06:30:47.003Z,6.67
2019-05-29T06:33:22.054Z,5.17
2019-05-29T06:35:54.965Z,5.60
2019-05-29T06:38:26.388Z,5.43
2019-05-29T06:40:57.814Z,5.20
2019-05-29T06:43:30.493Z,4.90
2019-05-29T06:46:03.973Z,4.30
2019-05-29T06:48:44.867Z,5.00
2019-05-29T06:51:11.482Z,4.83
2019-05-29T06:53:45.277Z,4.47
2019-05-29T06:56:35.587Z,4.43
2019-05-29T06:59:26.237Z,5.00
2019-05-29T07:02:00.959Z,5.57
2019-05-29T07:04:36.215Z,5.17
2019-05-29T07:07:26.673Z,4.77
2019-05-29T07:09:58.357Z,4.30
2019-05-29T07:12:31.312Z,4.73
2019-05-29T07:15:06.621Z,4.77
2019-05-29T07:17:57.847Z,5.40
2019-05-29T07:20:42.696Z,4.47
2019-05-29T07:23:15.665Z,5.13
2019-05-29T07:25:49.148Z,5.47
2019-05-29T07:28:29.516Z,4.60
2019-05-29T07:31:04.246Z,6.80
2019-05-29T07:33:39.005Z,9.30
2019-05-29T07:36:13.148Z,4.63
2019-05-29T07:38:57.683Z,4.63
2019-05-29T07:41:22.276Z,4.93
2019-05-29T07:44:00.319Z,7.13
2019-05-29T07:46:33.360Z,4.53
2019-05-29T07:49:05.985Z,5.57
2019-05-29T07:51:38.275Z,4.83
2019-05-29T07:54:11.518Z,5.70
2019-05-29T07:56:46.636Z,7.50
2019-05-29T07:59:40.482Z,4.70
2019-05-29T08:02:18.183Z,4.27
2019-05-29T08:04:51.973Z,4.90
2019-05-29T08:07:26.430Z,4.83
2019-05-29T08:10:00.832Z,4.10
2019-05-29T08:12:55.217Z,5.30
2019-05-29T08:15:54.083Z,6.10
2019-05-29T08:18:26.316Z,4.70
2019-05-29T08:21:00.444Z,5.43
2019-05-29T08:23:36.513Z,4.50
2019-05-29T08:26:08.671Z,5.40
2019-05-29T08:28:42.900Z,5.00
2019-05-29T08:31:33.047Z,4.87
2019-05-29T08:34:05.525Z,4.10
2019-05-29T08:36:40.818Z,4.97
2019-05-29T08:39:35.550Z,4.37
2019-05-29T08:42:20.656Z,4.13
2019-05-29T08:44:29.829Z,7.00
2019-05-29T08:47:10.521Z,4.93
2019-05-29T08:49:38.676Z,4.70
2019-05-29T08:52:13.436Z,5.00
2019-05-29T08:54:46.029Z,4.30
2019-05-29T08:57:20.822Z,4.60
2019-05-29T09:00:06.101Z,5.60
2019-05-29T09:02:38.549Z,4.90
2019-05-29T09:05:13.900Z,5.77
2019-05-29T09:07:48.428Z,5.23
2019-05-29T09:10:39.284Z,5.10
2019-05-29T09:13:27.515Z,6.10
2019-05-29T09:16:03.443Z,6.37
2019-05-29T09:18:35.754Z,6.00
2019-05-29T09:21:09.716Z,5.70
2019-05-29T09:23:43.567Z,5.10
2019-05-29T09:26:22.975Z,5.97
2019-05-29T09:29:05.882Z,5.50
2019-05-29T09:31:39.177Z,6.50
2019-05-29T09:34:13.872Z,6.37
2019-05-29T09:37:04.822Z,7.20
2019-05-29T09:39:38.822Z,6.27
2019-05-29T09:42:12.331Z,7.23
2019-05-29T09:44:47.698Z,7.00
2019-05-29T09:47:28.124Z,8.13
2019-05-29T09:50:00.828Z,7.23
2019-05-29T09:52:34.129Z,5.90
2019-05-29T09:55:08.798Z,6.80
2019-05-29T09:57:42.937Z,7.57
2019-05-29T10:00:20.702Z,7.83
2019-05-29T10:02:54.314Z,5.57
2019-05-29T10:05:26.766Z,5.80
2019-05-29T10:08:02.319Z,6.20
2019-05-29T10:10:36.329Z,6.87
2019-05-29T10:13:09.846Z,6.60
2019-05-29T10:15:43.667Z,6.00
2019-05-29T10:18:31.412Z,6.03
2019-05-29T10:20:52.285Z,6.80
2019-05-29T10:23:24.245Z,6.83
2019-05-29T10:25:58.833Z,6.47
2019-05-29T10:28:49.454Z,5.50
2019-05-29T10:31:06.301Z,6.53
2019-05-29T10:33:38.974Z,6.23
2019-05-29T10:36:12.175Z,5.90
2019-05-29T10:38:46.408Z,6.30
2019-05-29T10:41:20.243Z,6.50
2019-05-29T10:44:12.848Z,5.20
2019-05-29T10:47:00.138Z,5.80
2019-05-29T10:49:33.026Z,5.70
2019-05-29T10:52:15.929Z,6.40
2019-05-29T10:54:41.777Z,5.83
2019-05-29T10:57:18.799Z,5.60
2019-05-29T10:59:52.877Z,6.20
2019-05-29T11:02:26.572Z,5.53
2019-05-29T11:05:19.304Z,6.23
2019-05-29T11:07:51.962Z,5.40
2019-05-29T11:10:26.187Z,6.43
2019-05-29T11:13:18.225Z,5.90
2019-05-29T11:15:51.285Z,6.13
2019-05-29T11:18:24.238Z,6.17
2019-05-29T11:20:58.421Z,6.37
2019-05-29T11:23:42.657Z,5.43
2019-05-29T11:26:18.148Z,6.60
2019-05-29T11:29:07.588Z,7.07
2019-05-29T11:31:58.986Z,6.00
2019-05-29T11:34:33.838Z,6.30
2019-05-29T11:37:06.602Z,6.83
2019-05-29T11:39:41.202Z,6.43
2019-05-29T11:42:26.890Z,5.80
2019-05-29T11:44:46.634Z,6.60
2019-05-29T11:47:20.823Z,6.90
2019-05-29T11:49:55.262Z,6.67
2019-05-29T11:52:45.320Z,6.97
2019-05-29T11:55:27.336Z,7.07
2019-05-29T11:58:01.943Z,6.60
2019-05-29T12:00:33.659Z,6.00
2019-05-29T12:03:09.092Z,7.00
2019-05-29T12:05:59.405Z,6.43
2019-05-29T12:08:32.685Z,6.10
2019-05-29T12:11:26.756Z,7.43
2019-05-29T12:15:12.966Z,6.67
2019-05-29T12:17:49.243Z,6.60
2019-05-29T12:24:50.485Z,6.43
2019-05-29T12:27:37.019Z,6.10
2019-05-29T12:35:28.250Z,7.07
2019-05-29T12:39:04.582Z,6.00
2019-05-29T12:41:37.999Z,6.27
2019-05-29T12:44:27.591Z,7.10
2019-05-29T12:47:01.927Z,6.10
2019-05-29T12:49:33.587Z,5.30
2019-05-29T12:52:09.209Z,5.90
2019-05-29T12:54:42.710Z,5.43
2019-05-29T12:57:17.338Z,6.37
2019-05-29T12:59:51.955Z,6.73
2019-05-29T13:02:45.053Z,6.70
2019-05-29T13:05:35.129Z,7.17
2019-05-29T13:08:06.984Z,7.10
2019-05-29T13:10:39.064Z,7.37
2019-05-29T13:13:15.338Z,7.33
2019-05-29T13:15:48.821Z,7.83
2019-05-29T13:18:23.729Z,7.07
2019-05-29T13:20:58.943Z,5.93
2019-05-29T13:23:44.852Z,6.03
2019-05-29T13:26:09.067Z,6.23
2019-05-29T13:28:42.951Z,6.57
2019-05-29T13:31:17.521Z,5.70
2019-05-29T13:33:52.378Z,6.77
2019-05-29T13:36:24.567Z,6.80
2019-05-29T13:39:00.154Z,5.30
2019-05-29T13:41:50.061Z,5.60
2019-05-29T13:44:26.827Z,4.90
2019-05-29T13:47:01.933Z,4.93
2019-05-29T13:49:35.196Z,4.80
2019-05-29T13:52:12.067Z,5.20
2019-05-29T13:54:41.441Z,4.80
2019-05-29T13:57:18.420Z,4.40
2019-05-29T13:59:52.038Z,3.50
2019-05-29T14:02:24.745Z,3.90
2019-05-29T14:05:00.507Z,3.40
2019-05-29T14:07:35.705Z,3.30
2019-05-29T14:10:26.525Z,2.63
2019-05-29T14:13:00.947Z,2.37
2019-05-29T14:15:33.756Z,2.50
2019-05-29T14:18:07.091Z,2.10
2019-05-29T14:20:40.326Z,2.20
2019-05-29T14:23:12.157Z,2.57
2019-05-29T14:25:46.561Z,2.37
2019-05-29T14:28:18.826Z,2.20
2019-05-29T14:30:53.244Z,2.40
2019-05-29T14:33:27.672Z,2.53
2019-05-29T14:36:03.239Z,2.73
2019-05-29T14:38:36.489Z,3.27
2019-05-29T14:41:11.886Z,2.20
2019-05-29T14:45:12.627Z,2.70
2019-05-29T14:51:30.457Z,2.60
2019-05-29T14:54:02.758Z,2.67
2019-05-29T14:56:36.376Z,2.77
2019-05-29T14:59:10.994Z,2.97
2019-05-29T15:02:01.224Z,2.50
2019-05-29T15:04:35.664Z,2.80
2019-05-29T15:07:08.109Z,2.30
2019-05-29T15:09:41.473Z,2.70
2019-05-29T15:12:16.239Z,2.73
2019-05-29T15:15:06.730Z,2.80
2019-05-29T15:17:56.368Z,2.30
2019-05-29T15:20:46.454Z,3.17
2019-05-29T15:23:30.338Z,2.90
2019-05-29T15:26:03.619Z,3.30
2019-05-29T15:28:37.428Z,3.50
2019-05-29T15:31:10.414Z,2.90
2019-05-29T15:33:43.193Z,2.90
2019-05-29T15:36:18.398Z,2.40
2019-05-29T15:38:52.302Z,2.97
2019-05-29T15:41:27.230Z,3.10
2019-05-29T15:44:01.589Z,2.70
2019-05-29T15:46:44.795Z,4.50
2019-05-29T15:49:19.731Z,4.13
2019-05-29T15:51:54.838Z,2.90
2019-05-29T15:54:27.485Z,3.10
2019-05-29T15:57:02.745Z,2.60
2019-05-29T15:59:39.785Z,3.70
2019-05-29T16:02:18.834Z,3.27
2019-05-29T16:04:53.311Z,3.10
2019-05-29T16:07:27.579Z,2.53
2019-05-29T16:10:02.558Z,2.53
2019-05-29T16:12:37.638Z,2.53
2019-05-29T16:15:11.394Z,3.00
2019-05-29T16:17:42.745Z,2.60
2019-05-29T16:20:18.680Z,2.47
2019-05-29T16:23:04.928Z,2.90
2019-05-29T16:25:40.801Z,3.00
2019-05-29T16:28:15.073Z,2.63
2019-05-29T16:30:49.217Z,2.70
2019-05-29T16:33:38.656Z,2.30
2019-05-29T16:36:12.347Z,2.60
2019-05-29T16:38:45.919Z,1.90
2019-05-29T16:41:19.909Z,2.43
2019-05-29T16:43:52.329Z,4.80
2019-05-29T16:46:25.852Z,2.50
2019-05-29T16:49:09.964Z,2.50
2019-05-29T16:51:43.626Z,2.17
2019-05-29T16:54:17.207Z,5.20
2019-05-29T16:57:06.916Z,2.80
2019-05-29T16:59:38.869Z,2.40
2019-05-29T17:02:13.667Z,2.80
2019-05-29T17:04:46.471Z,3.10
2019-05-29T17:07:22.156Z,3.13
2019-05-29T17:09:55.179Z,2.60
2019-05-29T17:12:27.231Z,2.60
2019-05-29T17:14:59.488Z,3.13
2019-05-29T17:17:31.253Z,2.33
2019-05-29T17:20:03.776Z,2.00
2019-05-29T17:22:36.997Z,2.90
2019-05-29T17:25:11.213Z,2.80
2019-05-29T17:27:44.015Z,2.37
2019-05-29T17:30:21.006Z,2.60
2019-05-29T17:32:55.094Z,3.50
2019-05-29T17:35:44.639Z,2.50
2019-05-29T17:38:17.023Z,2.67
2019-05-29T17:40:51.275Z,2.50
2019-05-29T17:43:28.442Z,2.67
2019-05-29T17:46:08.420Z,2.47
2019-05-29T17:48:43.302Z,2.60
2019-05-29T17:51:21.899Z,2.70
2019-05-29T17:53:56.422Z,2.33
2019-05-29T17:56:36.256Z,2.13
2019-05-29T17:59:03.441Z,2.90
2019-05-29T18:01:39.249Z,2.83
2019-05-29T18:04:12.873Z,2.40
2019-05-29T18:06:47.806Z,2.53
2019-05-29T18:09:23.699Z,2.23
2019-05-29T18:11:55.313Z,3.00
2019-05-29T18:14:27.571Z,2.70
2019-05-29T18:17:19.662Z,3.03
2019-05-29T18:19:51.326Z,2.53
2019-05-29T18:22:27.559Z,2.37
2019-05-29T18:24:59.963Z,2.40
2019-05-29T18:27:50.029Z,3.33
2019-05-29T18:30:28.800Z,4.37
2019-05-29T18:33:51.492Z,2.73
2019-05-29T18:36:43.836Z,2.83
2019-05-29T18:39:28.787Z,2.47
2019-05-29T18:42:01.602Z,2.13
2019-05-29T18:44:35.401Z,2.30
2019-05-29T18:47:07.572Z,2.60
2019-05-29T18:49:40.507Z,2.70
2019-05-29T18:52:14.412Z,2.60
2019-05-29T18:55:04.606Z,2.23
2019-05-29T18:57:55.447Z,2.60
2019-05-29T19:00:27.749Z,2.77
2019-05-29T19:03:01.625Z,2.93
2019-05-29T19:05:33.310Z,2.40
2019-05-29T19:08:07.529Z,3.20
2019-05-29T19:10:40.956Z,2.70
2019-05-29T19:13:27.966Z,2.70
2019-05-29T19:16:01.866Z,2.47
2019-05-29T19:18:34.703Z,3.13
2019-05-29T19:21:06.553Z,4.10
2019-05-29T19:23:40.663Z,4.23
2019-05-29T19:26:13.516Z,4.03
2019-05-29T19:28:45.860Z,2.43
2019-05-29T19:31:22.987Z,2.30
2019-05-29T19:33:55.862Z,2.97
2019-05-29T19:36:27.723Z,2.70
2019-05-29T19:39:02.597Z,2.33
2019-05-29T19:41:52.588Z,2.40
2019-05-29T19:44:43.164Z,2.37
2019-05-29T19:47:17.681Z,2.57
2019-05-29T19:49:49.846Z,2.43
2019-05-29T19:52:29.069Z,3.00
2019-05-29T19:55:10.258Z,2.83
2019-05-29T19:57:54.836Z,3.13
2019-05-29T20:00:19.280Z,2.40
2019-05-29T20:02:52.782Z,2.50
2019-05-29T20:05:28.555Z,3.00
2019-05-29T20:08:19.529Z,2.60
2019-05-29T20:11:09.509Z,2.50
2019-05-29T20:13:48.983Z,2.40
2019-05-29T20:16:22.922Z,3.50
2019-05-29T20:18:55.708Z,3.13
2019-05-29T20:21:28.549Z,3.90
2019-05-29T20:24:01.488Z,2.40
2019-05-29T20:26:35.274Z,2.50
2019-05-29T20:29:07.000Z,2.40
2019-05-29T20:31:42.880Z,2.57
2019-05-29T20:34:25.751Z,2.90
2019-05-29T20:36:58.267Z,2.90
2019-05-29T20:39:30.259Z,2.43
2019-05-29T20:42:02.096Z,3.00
2019-05-29T20:44:34.532Z,3.20
2019-05-29T20:47:07.067Z,3.07
2019-05-29T20:49:40.498Z,4.13
2019-05-29T20:52:18.010Z,4.17
2019-05-29T20:54:58.875Z,2.60
2019-05-29T20:57:35.767Z,2.87
2019-05-29T21:00:10.687Z,2.40
2019-05-29T21:02:44.423Z,2.80
2019-05-29T21:05:30.417Z,3.50
2019-05-29T21:08:05.126Z,3.13
2019-05-29T21:10:55.393Z,2.80
2019-05-29T21:13:27.145Z,2.40
2019-05-29T21:16:05.822Z,2.70
2019-05-29T21:18:42.212Z,2.10
2019-05-29T21:21:18.438Z,2.80
2019-05-29T21:24:03.009Z,2.97
2019-05-29T21:26:36.948Z,3.10
2019-05-29T21:29:10.231Z,2.47
2019-05-29T21:31:43.720Z,2.60
2019-05-29T21:34:17.262Z,2.43
2019-05-29T21:36:51.175Z,2.27
2019-05-29T21:39:42.346Z,2.20
2019-05-29T21:42:14.173Z,2.50
2019-05-29T21:44:47.089Z,2.80
2019-05-29T21:51:16.849Z,2.50
2019-05-29T21:54:07.093Z,2.53
2019-05-29T21:56:41.532Z,2.80
2019-05-29T21:59:13.689Z,2.03
2019-05-29T22:01:55.401Z,2.73
2019-05-29T22:04:27.674Z,2.83
2019-05-29T22:07:02.269Z,3.80
2019-05-29T22:09:34.348Z,6.30
2019-05-29T22:12:08.557Z,2.67
2019-05-29T22:14:40.785Z,2.63
2019-05-29T22:17:13.709Z,2.70
2019-05-29T22:19:48.477Z,3.10
2019-05-29T22:22:23.753Z,2.60
2019-05-29T22:24:55.564Z,2.80
2019-05-29T22:27:28.574Z,2.80
2019-05-29T22:30:01.532Z,2.73
2019-05-29T22:32:35.700Z,2.80
2019-05-29T22:35:09.647Z,3.17
2019-05-29T22:37:43.766Z,2.57
2019-05-29T22:40:19.891Z,2.70
2019-05-29T22:43:10.159Z,2.93
2019-05-29T22:46:00.434Z,3.17
2019-05-29T22:48:35.586Z,2.73
2019-05-29T22:51:08.613Z,2.90
2019-05-29T22:53:41.046Z,2.73
2019-05-29T22:56:16.269Z,2.67
2019-05-29T22:58:51.901Z,2.80
2019-05-29T23:01:32.059Z,2.73
2019-05-29T23:04:05.857Z,2.90
2019-05-29T23:06:37.986Z,2.87
2019-05-29T23:09:10.792Z,2.40
2019-05-29T23:11:44.113Z,2.57
2019-05-29T23:14:18.735Z,2.90
2019-05-29T23:16:52.347Z,2.83
2019-05-29T23:19:26.589Z,2.50
2019-05-29T23:22:07.859Z,2.97
2019-05-29T23:24:39.569Z,2.80
2019-05-29T23:27:13.917Z,3.53
2019-05-29T23:29:49.322Z,2.47
2019-05-29T23:32:21.799Z,3.17
2019-05-29T23:34:57.173Z,2.73
2019-05-29T23:37:28.705Z,3.10
2019-05-29T23:40:03.519Z,2.97
2019-05-29T23:42:53.318Z,3.07
2019-05-29T23:45:26.468Z,3.20
2019-05-29T23:47:58.095Z,3.00
2019-05-29T23:50:31.833Z,2.60
2019-05-29T23:53:11.040Z,2.93
2019-05-29T23:55:42.731Z,2.93
2019-05-29T23:58:18.556Z,2.63
